Time;durP1;ratioP1;P1;durP2;ratioP2;P2;SDS_P1;SDS_P2;PMS_P1;PMS_P2;Temp;Humidity;BMP_temperature;BMP_pressure;BME280_temperature;BME280_humidity;BME280_pressure;Samples;Min_cycle;Max_cycle;Signal;HPM_P1;HPM_P2
2023/11/09 00:02:01;;;;;;;0.00;0.00;;;;;;;8.11;73.84;98946.88;7357261;19;20802;-58
2023/11/09 00:04:26;;;;;;;0.00;0.00;;;;;;;8.12;73.46;98940.78;7351065;19;20467;-59
2023/11/09 00:06:52;;;;;;;0.10;0.10;;;;;;;8.10;73.50;98947.78;7350158;19;20018;-59
2023/11/09 00:09:17;;;;;;;0.00;0.00;;;;;;;8.07;73.58;98934.03;7352225;19;20017;-57
2023/11/09 00:11:46;;;;;;;0.00;0.00;;;;;;;8.06;73.73;98934.94;7344813;19;20420;-58
2023/11/09 00:14:15;;;;;;;0.00;0.00;;;;;;;8.03;73.81;98929.84;7355713;19;20014;-57
2023/11/09 00:16:42;;;;;;;0.00;0.00;;;;;;;8.03;73.70;98932.44;7355136;19;20015;-56
2023/11/09 00:19:07;;;;;;;0.00;0.00;;;;;;;8.01;73.65;98931.69;7358439;19;20007;-57
2023/11/09 00:21:32;;;;;;;0.10;0.10;;;;;;;8.00;73.93;98927.34;7356778;19;20035;-58
2023/11/09 00:23:58;;;;;;;0.05;0.05;;;;;;;8.01;73.48;98925.63;7357725;19;20011;-56
2023/11/09 00:26:24;;;;;;;0.00;0.00;;;;;;;7.99;73.61;98933.47;7351727;19;20022;-58
2023/11/09 00:28:50;;;;;;;0.03;0.03;;;;;;;7.88;73.96;98904.47;7354052;19;20003;-55
2023/11/09 00:31:17;;;;;;;0.10;0.10;;;;;;;7.99;73.76;98928.28;7351713;19;20628;-59
2023/11/09 00:33:43;;;;;;;0.00;0.00;;;;;;;7.96;73.69;98910.22;7353189;19;20036;-58
2023/11/09 00:36:09;;;;;;;0.10;0.10;;;;;;;7.95;73.90;98905.06;7355352;19;20025;-58
2023/11/09 00:38:34;;;;;;;0.10;0.10;;;;;;;8.00;74.13;98906.56;7352225;19;20006;-57
2023/11/09 00:40:59;;;;;;;0.10;0.10;;;;;;;7.98;74.00;98889.34;7356205;19;20015;-58
2023/11/09 00:43:25;;;;;;;0.00;0.00;;;;;;;8.00;73.80;98897.94;7361194;19;20003;-55
2023/11/09 00:45:50;;;;;;;0.08;0.08;;;;;;;7.84;73.65;98870.88;7359881;19;20017;-56
2023/11/09 00:48:16;;;;;;;0.08;0.08;;;;;;;7.98;73.55;98899.75;7357845;19;20031;-57
2023/11/09 00:50:41;;;;;;;0.10;0.10;;;;;;;7.89;74.03;98884.53;7358627;19;20011;-58
2023/11/09 00:53:06;;;;;;;0.00;0.00;;;;;;;7.96;73.61;98886.84;7347996;19;20825;-58
2023/11/09 00:55:32;;;;;;;0.10;0.10;;;;;;;7.95;73.56;98887.72;7358969;19;20014;-56
2023/11/09 00:57:57;;;;;;;0.10;0.10;;;;;;;7.95;73.72;98885.13;7356827;19;20020;-57
2023/11/09 01:00:22;;;;;;;0.00;0.00;;;;;;;7.94;73.36;98880.00;7357973;19;20262;-57
2023/11/09 01:02:49;;;;;;;0.00;0.00;;;;;;;7.94;73.92;98880.00;7354539;19;20070;-57
2023/11/09 01:05:14;;;;;;;0.10;0.10;;;;;;;7.95;73.72;98874.72;7353497;19;20018;-57
2023/11/09 01:07:40;;;;;;;0.00;0.00;;;;;;;7.94;73.71;98867.84;7357280;19;20887;-57
2023/11/09 01:10:06;;;;;;;0.10;0.10;;;;;;;7.93;73.83;98860.13;7357181;19;20014;-57
2023/11/09 01:12:31;;;;;;;0.10;0.10;;;;;;;7.92;73.65;98859.28;7363165;19;20078;-57
2023/11/09 01:14:57;;;;;;;0.10;0.10;;;;;;;7.93;73.71;98860.13;7359212;19;20014;-57
2023/11/09 01:17:22;;;;;;;0.10;0.10;;;;;;;7.93;74.01;98850.56;7352575;19;20011;-57
2023/11/09 01:19:47;;;;;;;0.00;0.00;;;;;;;7.93;73.72;98837.56;7358978;19;20030;-58
2023/11/09 01:22:13;;;;;;;0.00;0.00;;;;;;;7.92;73.85;98848.88;7353109;19;20469;-57
2023/11/09 01:24:38;;;;;;;0.00;0.00;;;;;;;7.94;73.76;98835.81;7361832;19;20019;-57
2023/11/09 01:27:04;;;;;;;0.10;0.10;;;;;;;7.96;73.89;98836.59;7367775;19;20007;-57
2023/11/09 01:29:30;;;;;;;0.00;0.00;;;;;;;7.98;73.71;98835.63;7363168;19;20014;-58
2023/11/09 01:31:57;;;;;;;0.10;0.10;;;;;;;7.83;73.51;98810.28;7366812;19;20086;-58
2023/11/09 01:34:23;;;;;;;0.00;0.00;;;;;;;7.96;73.73;98815.81;7358076;19;20007;-56
2023/11/09 01:36:49;;;;;;;0.00;0.00;;;;;;;8.00;74.10;98831.19;7362574;19;20029;-58
2023/11/09 01:39:14;;;;;;;0.10;0.10;;;;;;;7.91;74.08;98817.75;7362958;19;20017;-56
2023/11/09 01:41:42;;;;;;;0.00;0.00;;;;;;;8.02;73.79;98813.78;7360086;19;20014;-56
2023/11/09 01:44:07;;;;;;;0.00;0.00;;;;;;;8.05;74.13;98816.25;7362912;19;20010;-57
2023/11/09 01:46:33;;;;;;;0.00;0.00;;;;;;;8.06;74.16;98809.31;7366012;19;20014;-58
2023/11/09 01:48:58;;;;;;;0.00;0.00;;;;;;;8.09;74.03;98805.72;7369587;19;20011;-58
2023/11/09 01:51:26;;;;;;;0.05;0.05;;;;;;;8.10;73.75;98804.81;7364352;19;20041;-58
2023/11/09 01:53:52;;;;;;;0.10;0.10;;;;;;;8.13;73.93;98809.88;7344922;19;20090;-58
2023/11/09 01:56:19;;;;;;;0.05;0.05;;;;;;;8.17;74.18;98816.66;7360163;19;20526;-58
2023/11/09 01:58:46;;;;;;;0.00;0.00;;;;;;;8.18;73.86;98802.72;7362742;19;20025;-57
2023/11/09 02:01:12;;;;;;;0.08;0.08;;;;;;;8.18;73.47;98795.78;7362624;19;20010;-58
2023/11/09 02:03:38;;;;;;;0.10;0.10;;;;;;;8.17;73.18;98790.66;7364301;19;20027;-56
2023/11/09 02:06:05;;;;;;;0.10;0.10;;;;;;;8.11;73.61;98767.50;7364768;19;20581;-59
2023/11/09 02:08:31;;;;;;;0.10;0.10;;;;;;;8.23;73.33;98785.19;7368031;19;20017;-58
2023/11/09 02:10:57;;;;;;;0.00;0.00;;;;;;;8.23;73.72;98782.56;7362155;19;20097;-58
2023/11/09 02:13:22;;;;;;;0.10;0.10;;;;;;;8.22;73.34;98767.91;7366908;19;20676;-59
2023/11/09 02:15:48;;;;;;;0.10;0.10;;;;;;;8.27;73.13;98760.75;7359140;19;20014;-57
2023/11/09 02:18:13;;;;;;;0.10;0.10;;;;;;;8.26;73.32;98759.91;7362238;19;20015;-58
2023/11/09 02:20:40;;;;;;;0.00;0.00;;;;;;;8.19;73.41;98744.63;7358406;19;20003;-57
2023/11/09 02:23:08;;;;;;;0.10;0.10;;;;;;;8.24;73.50;98750.47;7365981;19;20641;-58
2023/11/09 02:25:34;;;;;;;0.10;0.10;;;;;;;8.30;73.46;98751.03;7361992;19;20010;-58
2023/11/09 02:28:00;;;;;;;0.00;0.00;;;;;;;8.29;73.29;98751.94;7357329;19;20011;-56
2023/11/09 02:30:26;;;;;;;0.00;0.00;;;;;;;8.24;73.51;98732.25;7356453;19;20857;-58
2023/11/09 02:32:51;;;;;;;0.10;0.10;;;;;;;8.27;72.93;98734.72;7364848;19;20015;-58
2023/11/09 02:35:17;;;;;;;0.00;0.00;;;;;;;8.19;72.72;98724.66;7359783;19;20010;-58
2023/11/09 02:37:42;;;;;;;0.00;0.00;;;;;;;8.24;73.33;98730.50;7356442;19;20359;-56
2023/11/09 02:40:08;;;;;;;0.10;0.10;;;;;;;8.18;72.67;98725.56;7363732;19;20011;-59
2023/11/09 02:42:33;;;;;;;0.00;0.00;;;;;;;8.19;72.64;98726.41;7359434;19;20017;-57
2023/11/09 02:44:59;;;;;;;0.10;0.10;;;;;;;8.15;73.13;98715.31;7368379;19;20021;-55
2023/11/09 02:47:24;;;;;;;0.10;0.10;;;;;;;8.15;72.87;98712.69;7371611;19;20577;-58
2023/11/09 02:49:49;;;;;;;0.00;0.00;;;;;;;8.11;72.71;98699.91;7365161;19;20035;-58
2023/11/09 02:52:15;;;;;;;0.10;0.10;;;;;;;8.12;72.86;98709.41;7360432;19;20003;-56
2023/11/09 02:54:40;;;;;;;0.00;0.00;;;;;;;8.10;72.87;98706.03;7355100;19;20856;-59
2023/11/09 02:57:06;;;;;;;0.10;0.10;;;;;;;8.07;73.23;98697.47;7363511;19;20351;-58
2023/11/09 02:59:31;;;;;;;0.10;0.10;;;;;;;7.92;72.16;98677.34;7369352;19;20017;-57
2023/11/09 03:01:57;;;;;;;0.10;0.10;;;;;;;8.06;72.50;98690.59;7369733;19;20355;-58
2023/11/09 03:04:22;;;;;;;0.00;0.00;;;;;;;8.03;72.83;98690.72;7365044;19;20010;-59
2023/11/09 03:06:48;;;;;;;0.00;0.00;;;;;;;7.95;72.46;98674.59;7364576;19;19998;-57
2023/11/09 03:09:16;;;;;;;0.10;0.10;;;;;;;7.90;72.37;98663.56;7363404;19;20018;-58
2023/11/09 03:11:42;;;;;;;0.00;0.00;;;;;;;8.00;72.32;98679.59;7363438;19;20631;-58
2023/11/09 03:14:07;;;;;;;0.10;0.10;;;;;;;7.69;72.64;98638.53;7365009;19;20010;-58
2023/11/09 03:16:33;;;;;;;0.10;0.10;;;;;;;8.00;72.66;98684.78;7357814;19;20016;-58
2023/11/09 03:18:58;;;;;;;0.00;0.00;;;;;;;7.97;72.65;98674.56;7366565;19;20006;-59
2023/11/09 03:21:23;;;;;;;0.00;0.00;;;;;;;7.94;72.74;98665.13;7362307;19;20009;-59
2023/11/09 03:23:49;;;;;;;0.00;0.00;;;;;;;7.92;73.00;98645.31;7358994;19;20006;-57
2023/11/09 03:26:15;;;;;;;0.10;0.10;;;;;;;7.94;72.74;98659.94;7324236;19;20373;-58
2023/11/09 03:28:40;;;;;;;0.00;0.00;;;;;;;7.93;72.32;98644.41;7360580;19;20010;-58
2023/11/09 03:31:06;;;;;;;0.10;0.10;;;;;;;7.92;72.40;98647.94;7362420;19;20482;-58
2023/11/09 03:33:32;;;;;;;0.10;0.10;;;;;;;7.90;72.83;98642.78;7359645;19;20011;-55
2023/11/09 03:35:57;;;;;;;0.10;0.10;;;;;;;7.89;72.22;98629.84;7362620;19;20015;-56
2023/11/09 03:38:23;;;;;;;0.10;0.10;;;;;;;7.87;72.44;98624.75;7352873;19;20011;-58
2023/11/09 03:40:48;;;;;;;0.00;0.00;;;;;;;7.83;72.02;98628.38;7362879;19;20102;-57
2023/11/09 03:43:13;;;;;;;0.00;0.00;;;;;;;7.72;72.62;98596.84;7362474;19;20062;-59
2023/11/09 03:45:39;;;;;;;0.10;0.10;;;;;;;7.83;71.83;98619.75;7354319;19;20074;-56
2023/11/09 03:48:04;;;;;;;0.00;0.00;;;;;;;7.82;72.12;98616.31;7362285;19;20010;-58
2023/11/09 03:50:30;;;;;;;0.00;0.00;;;;;;;7.75;72.23;98599.28;7365700;19;20638;-59
2023/11/09 03:52:56;;;;;;;0.10;0.10;;;;;;;7.75;72.59;98602.72;7356850;19;20111;-57
2023/11/09 03:55:21;;;;;;;0.08;0.08;;;;;;;7.75;72.40;98602.72;7360538;19;20020;-58
2023/11/09 03:57:46;;;;;;;0.00;0.00;;;;;;;7.60;72.35;98581.78;7353260;19;20082;-56
2023/11/09 04:00:12;;;;;;;0.10;0.10;;;;;;;7.74;72.24;98605.41;7362165;19;20615;-58
2023/11/09 04:02:42;;;;;;;0.00;0.00;;;;;;;7.74;72.33;98608.00;7360382;19;20018;-57
2023/11/09 04:05:09;;;;;;;0.00;0.00;;;;;;;7.70;72.37;98603.84;7362902;19;20040;-57
2023/11/09 04:07:35;;;;;;;0.10;0.10;;;;;;;7.66;72.43;98608.34;7358970;19;20541;-58
2023/11/09 04:10:01;;;;;;;0.10;0.10;;;;;;;7.52;72.15;98579.56;7357202;19;20011;-58
2023/11/09 04:12:26;;;;;;;0.00;0.00;;;;;;;7.66;72.63;98602.31;7363719;19;20014;-58
2023/11/09 04:14:52;;;;;;;0.00;0.00;;;;;;;7.58;72.24;98583.63;7363016;19;20056;-58
2023/11/09 04:17:18;;;;;;;0.10;0.10;;;;;;;7.65;72.40;98595.41;7353388;19;20014;-54
2023/11/09 04:19:44;;;;;;;0.10;0.10;;;;;;;7.65;72.60;98587.63;7338466;19;20471;-57
2023/11/09 04:22:10;;;;;;;0.00;0.00;;;;;;;7.63;72.30;98589.47;7362133;19;20025;-58
2023/11/09 04:24:36;;;;;;;0.10;0.10;;;;;;;7.63;72.65;98592.06;7361912;19;20482;-59
2023/11/09 04:27:01;;;;;;;0.00;0.00;;;;;;;7.59;72.23;98577.50;7363269;19;20466;-58
2023/11/09 04:29:27;;;;;;;0.10;0.10;;;;;;;7.60;72.43;98586.97;7363203;19;20014;-58
2023/11/09 04:31:53;;;;;;;0.10;0.10;;;;;;;7.59;72.13;98590.50;7358742;19;20014;-57
2023/11/09 04:34:19;;;;;;;0.10;0.10;;;;;;;7.18;72.37;98517.88;7363041;19;20025;-58
2023/11/09 04:36:49;;;;;;;0.10;0.10;;;;;;;7.56;71.97;98582.88;7342587;19;20007;-58
2023/11/09 04:39:27;;;;;;;0.08;0.08;;;;;;;7.54;72.29;98582.91;7360471;19;20014;-57
2023/11/09 04:41:57;;;;;;;0.10;0.10;;;;;;;7.50;72.65;98573.56;7362869;19;20612;-57
2023/11/09 04:44:23;;;;;;;0.10;0.10;;;;;;;7.48;72.22;98568.44;7359906;19;20086;-58
2023/11/09 04:46:49;;;;;;;0.10;0.10;;;;;;;7.50;72.10;98573.56;7362896;19;20006;-58
2023/11/09 04:49:15;;;;;;;0.10;0.10;;;;;;;7.48;72.17;98573.63;7362890;19;20030;-57
2023/11/09 04:51:45;;;;;;;0.10;0.10;;;;;;;7.47;72.39;98574.56;7360152;19;20722;-58
2023/11/09 04:54:19;;;;;;;0.08;0.08;;;;;;;7.46;72.27;98565.09;7362374;19;20014;-58
2023/11/09 05:07:29;;;;;;;0.00;0.00;;;;;;;7.32;72.28;98528.50;7359354;19;20047;-55
2023/11/09 05:09:56;;;;;;;0.08;0.08;;;;;;;7.39;72.23;98539.44;7370389;19;20014;-55
2023/11/09 05:12:21;;;;;;;0.00;0.00;;;;;;;7.37;72.29;98531.72;7366546;19;20010;-56
2023/11/09 05:14:47;;;;;;;0.10;0.10;;;;;;;7.37;72.72;98523.09;7376618;19;20455;-59
2023/11/09 05:17:15;;;;;;;0.00;0.00;;;;;;;7.33;72.15;98526.75;7370332;19;20015;-56
2023/11/09 05:19:42;;;;;;;0.00;0.00;;;;;;;7.34;72.33;98534.44;7370599;19;20019;-59
2023/11/09 05:22:09;;;;;;;0.00;0.00;;;;;;;7.31;72.49;98524.22;7365613;19;20017;-58
2023/11/09 05:24:36;;;;;;;0.00;0.00;;;;;;;7.29;72.86;98521.66;7364999;19;20006;-57
2023/11/09 05:27:02;;;;;;;0.00;0.00;;;;;;;7.29;72.80;98536.41;7368228;19;20003;-54
2023/11/09 05:29:28;;;;;;;0.00;0.00;;;;;;;7.27;72.70;98533.03;7370269;19;20010;-57
2023/11/09 05:31:54;;;;;;;0.10;0.10;;;;;;;7.25;72.53;98532.28;7366084;19;20497;-56
2023/11/09 05:34:20;;;;;;;0.10;0.10;;;;;;;7.27;72.36;98552.06;7339574;19;20007;-57
2023/11/09 05:36:46;;;;;;;0.10;0.10;;;;;;;7.26;72.87;98536.56;7366295;19;20701;-57
2023/11/09 05:39:13;;;;;;;0.10;0.10;;;;;;;7.24;72.71;98527.97;7368310;19;20345;-58
2023/11/09 05:41:39;;;;;;;;;;;;;;;7.27;72.24;98527.84;7374000;19;20014;-58
2023/11/09 05:44:06;;;;;;;0.05;0.05;;;;;;;7.20;72.25;98522.09;7371170;19;19922;-57
2023/11/09 05:46:32;;;;;;;0.00;0.00;;;;;;;6.84;72.18;98466.59;7366033;19;20022;-57
2023/11/09 05:48:57;;;;;;;0.03;0.03;;;;;;;7.20;72.07;98516.91;7367642;19;20018;-57
2023/11/09 05:51:23;;;;;;;0.10;0.10;;;;;;;7.16;72.28;98509.31;7366357;19;20010;-57
2023/11/09 05:53:50;;;;;;;0.10;0.10;;;;;;;7.10;72.06;98500.06;7360652;19;20038;-57
2023/11/09 05:56:17;;;;;;;0.00;0.00;;;;;;;7.01;72.41;98485.72;7367409;19;20085;-58
2023/11/09 05:58:44;;;;;;;0.00;0.00;;;;;;;6.74;72.43;98424.63;7363581;19;20010;-58
2023/11/09 06:01:11;;;;;;;0.10;0.10;;;;;;;7.09;72.28;98492.31;7370809;19;20483;-56
2023/11/09 06:03:37;;;;;;;0.10;0.10;;;;;;;7.14;72.21;98493.78;7359953;19;20014;-55
2023/11/09 06:06:04;;;;;;;0.10;0.10;;;;;;;7.14;71.83;98485.16;7374679;19;20014;-58
2023/11/09 06:08:29;;;;;;;0.10;0.10;;;;;;;7.14;72.19;98482.56;7351037;19;20007;-57
2023/11/09 06:10:54;;;;;;;0.03;0.03;;;;;;;7.13;72.38;98480.91;7366881;19;20098;-56
2023/11/09 06:13:20;;;;;;;0.10;0.10;;;;;;;7.12;72.48;98484.41;7370079;19;20501;-57
2023/11/09 06:15:45;;;;;;;0.00;0.00;;;;;;;7.13;72.43;98470.50;7361501;19;20014;-58
2023/11/09 06:18:11;;;;;;;0.05;0.05;;;;;;;7.10;72.27;98462.88;7367509;19;20407;-57
2023/11/09 06:20:39;;;;;;;0.10;0.10;;;;;;;7.14;72.32;98474.78;7368064;19;20011;-58
2023/11/09 06:23:05;;;;;;;0.00;0.00;;;;;;;7.13;72.49;98465.31;7363902;19;20015;-58
2023/11/09 06:25:30;;;;;;;0.00;0.00;;;;;;;7.12;72.34;98456.69;7364684;19;20059;-57
2023/11/09 06:27:56;;;;;;;0.00;0.00;;;;;;;7.07;72.39;98457.81;7366924;19;20011;-55
2023/11/09 06:30:21;;;;;;;0.00;0.00;;;;;;;7.03;72.01;98446.72;7363912;19;20035;-57
2023/11/09 06:32:48;;;;;;;0.03;0.03;;;;;;;7.08;72.36;98456.91;7368095;19;20030;-58
2023/11/09 06:35:17;;;;;;;0.10;0.10;;;;;;;7.13;72.09;98462.72;7362632;19;20042;-57
2023/11/09 06:37:45;;;;;;;0.00;0.00;;;;;;;6.99;72.43;98430.47;7369402;19;20482;-58
2023/11/09 06:40:16;;;;;;;0.00;0.00;;;;;;;7.16;72.44;98449.63;7363979;19;20013;-58
2023/11/09 06:42:42;;;;;;;0.10;0.10;;;;;;;7.17;72.50;98448.72;7364343;19;20010;-58
2023/11/09 06:45:09;;;;;;;0.00;0.00;;;;;;;7.16;72.37;98437.47;7371244;19;20370;-58
2023/11/09 06:47:38;;;;;;;0.10;0.10;;;;;;;7.17;72.50;98443.50;7374138;19;20240;-58
2023/11/09 06:50:11;;;;;;;0.00;0.00;;;;;;;7.15;71.92;98434.97;7369393;19;20015;-56
2023/11/09 06:52:41;;;;;;;0.00;0.00;;;;;;;7.21;72.40;98447.66;7356311;19;20484;-57
2023/11/09 06:55:11;;;;;;;0.00;0.00;;;;;;;7.22;72.38;98447.59;7365678;19;20936;-57
2023/11/09 06:57:37;;;;;;;0.00;0.00;;;;;;;7.22;71.82;98445.00;7363029;19;20018;-58
2023/11/09 07:00:06;;;;;;;0.10;0.10;;;;;;;7.24;72.29;98442.31;7367170;19;20126;-56
2023/11/09 07:02:33;;;;;;;0.10;0.10;;;;;;;7.23;72.07;98443.22;7347541;19;20395;-56
2023/11/09 07:04:59;;;;;;;0.10;0.10;;;;;;;7.24;71.99;98456.13;7355922;19;20400;-55
2023/11/09 07:07:25;;;;;;;0.10;0.10;;;;;;;7.19;71.79;98442.53;7361686;19;20015;-57
2023/11/09 07:09:51;;;;;;;0.00;0.00;;;;;;;7.24;71.90;98439.72;7364944;19;20037;-57
2023/11/09 07:12:19;;;;;;;0.00;0.00;;;;;;;7.23;71.88;98432.84;7358608;19;20022;-58
2023/11/09 07:14:44;;;;;;;0.00;0.00;;;;;;;7.22;72.23;98434.59;7370672;19;20025;-58
2023/11/09 07:17:11;;;;;;;0.10;0.10;;;;;;;7.05;71.65;98392.19;7361272;19;20002;-57
2023/11/09 07:19:37;;;;;;;0.10;0.10;;;;;;;7.18;72.18;98401.06;7365720;19;20985;-57
2023/11/09 07:22:05;;;;;;;0.00;0.00;;;;;;;7.22;71.77;98410.41;7363102;19;20006;-58
2023/11/09 07:24:35;;;;;;;0.10;0.10;;;;;;;7.21;71.52;98408.72;7364593;19;20007;-56
2023/11/09 07:27:01;;;;;;;0.00;0.00;;;;;;;7.22;71.68;98416.44;7358017;19;20438;-57
2023/11/09 07:29:26;;;;;;;0.10;0.10;;;;;;;7.19;71.71;98410.53;7354834;19;20013;-58
2023/11/09 07:31:52;;;;;;;0.00;0.00;;;;;;;7.17;71.44;98404.59;7360746;19;20416;-57
2023/11/09 07:34:17;;;;;;;0.10;0.10;;;;;;;7.18;71.81;98419.25;7367447;19;20015;-57
2023/11/09 07:36:43;;;;;;;0.10;0.10;;;;;;;7.17;71.54;98402.00;7360121;19;20011;-58
2023/11/09 07:39:08;;;;;;;0.00;0.00;;;;;;;7.19;71.75;98405.34;7360308;19;20011;-56
2023/11/09 07:41:34;;;;;;;0.05;0.05;;;;;;;7.18;71.90;98403.66;7364706;19;20571;-56
2023/11/09 07:44:00;;;;;;;0.10;0.10;;;;;;;7.18;71.43;98391.53;7362368;19;20018;-57
2023/11/09 07:46:25;;;;;;;0.10;0.10;;;;;;;7.17;71.11;98394.19;7363648;19;20070;-57
2023/11/09 07:48:51;;;;;;;0.10;0.10;;;;;;;7.15;71.29;98388.25;7361873;19;20018;-57
2023/11/09 07:51:18;;;;;;;0.10;0.10;;;;;;;7.17;71.52;98391.59;7356592;19;20017;-58
2023/11/09 07:53:43;;;;;;;0.00;0.00;;;;;;;7.06;71.66;98373.94;7362042;19;20010;-58
2023/11/09 07:56:11;;;;;;;0.10;0.10;;;;;;;7.09;71.14;98378.13;7351488;19;20762;-58
2023/11/09 07:58:36;;;;;;;0.00;0.00;;;;;;;7.16;71.70;98387.34;7359010;19;20359;-57
2023/11/09 08:01:04;;;;;;;0.00;0.00;;;;;;;7.16;71.32;98395.13;7359838;19;20010;-58
2023/11/09 08:03:29;;;;;;;0.00;0.00;;;;;;;7.15;71.90;98393.44;7363081;19;20367;-56
2023/11/09 08:05:56;;;;;;;0.10;0.10;;;;;;;7.09;71.66;98372.94;7364841;19;20018;-57
2023/11/09 08:08:21;;;;;;;0.00;0.00;;;;;;;7.16;71.60;98375.19;7365976;19;20057;-58
2023/11/09 08:10:47;;;;;;;0.00;0.00;;;;;;;7.16;71.32;98376.94;7355420;19;20506;-58
2023/11/09 08:13:13;;;;;;;0.05;0.05;;;;;;;7.16;71.77;98376.94;7363829;19;20012;-58
2023/11/09 08:15:38;;;;;;;0.00;0.00;;;;;;;7.16;71.55;98387.34;7359632;19;20042;-57
2023/11/09 08:18:04;;;;;;;0.00;0.00;;;;;;;7.17;71.58;98391.59;7366462;19;20019;-57
2023/11/09 08:20:30;;;;;;;0.10;0.10;;;;;;;7.17;71.63;98381.22;7362504;19;20013;-58
2023/11/09 08:22:59;;;;;;;0.00;0.00;;;;;;;7.10;71.92;98361.66;7359325;19;20048;-58
2023/11/09 08:25:25;;;;;;;0.00;0.00;;;;;;;7.07;71.71;98354.84;7362796;19;20088;-57
2023/11/09 08:27:53;;;;;;;0.10;0.10;;;;;;;7.17;71.83;98370.84;7360112;19;20791;-56
2023/11/09 08:30:20;;;;;;;0.10;0.10;;;;;;;7.22;71.79;98366.28;7365140;19;20006;-58
2023/11/09 08:32:49;;;;;;;;;;;;;;;7.27;72.11;98366.91;7359838;19;22422;-56
2023/11/09 08:35:14;;;;;;;0.00;0.00;;;;;;;7.24;71.72;98356.66;7365627;19;19962;-56
2023/11/09 08:37:41;;;;;;;0.03;0.03;;;;;;;7.23;71.57;98355.81;7337101;19;20470;-57
2023/11/09 08:40:17;;;;;;;0.00;0.00;;;;;;;7.28;71.63;98353.00;7363445;19;20015;-56
2023/11/09 08:42:48;;;;;;;0.10;0.10;;;;;;;7.32;71.43;98351.97;7364082;19;20010;-58
2023/11/09 08:45:17;;;;;;;0.00;0.00;;;;;;;7.28;71.66;98350.41;7368444;19;20041;-57
2023/11/09 08:47:43;;;;;;;0.08;0.08;;;;;;;7.35;71.51;98349.22;7370791;19;20039;-58
2023/11/09 08:50:09;;;;;;;0.10;0.10;;;;;;;7.39;72.03;98352.50;7350833;19;20554;-58
2023/11/09 08:52:35;;;;;;;0.10;0.10;;;;;;;7.41;71.49;98354.13;7372836;19;20302;-56
2023/11/09 08:55:04;;;;;;;0.00;0.00;;;;;;;7.32;71.71;98323.41;7377128;19;20010;-57
2023/11/09 08:57:32;;;;;;;0.10;0.10;;;;;;;7.49;71.73;98341.59;7372687;19;20463;-57
2023/11/09 09:00:00;;;;;;;0.00;0.00;;;;;;;7.55;71.87;98335.25;7382161;19;20050;-57
2023/11/09 09:02:25;;;;;;;0.00;0.00;;;;;;;7.57;71.43;98330.03;7374696;19;20483;-57
2023/11/09 09:04:51;;;;;;;0.10;0.10;;;;;;;7.54;71.29;98310.22;7377977;19;20015;-58
2023/11/09 09:07:16;;;;;;;0.10;0.10;;;;;;;7.66;71.53;98327.81;7372169;19;20434;-56
2023/11/09 09:09:43;;;;;;;0.03;0.03;;;;;;;7.69;71.42;98316.41;7370693;19;20014;-57
2023/11/09 09:12:10;;;;;;;0.10;0.10;;;;;;;7.73;71.69;98320.56;7373970;19;20015;-57
2023/11/09 09:14:35;;;;;;;0.03;0.03;;;;;;;7.76;71.39;98321.25;7344724;19;20011;-57
2023/11/09 09:17:05;;;;;;;0.10;0.10;;;;;;;7.79;71.43;98313.28;7373344;19;20017;-57
2023/11/09 09:19:30;;;;;;;0.10;0.10;;;;;;;7.85;71.60;98309.53;7367568;19;20010;-56
2023/11/09 09:21:56;;;;;;;0.10;0.10;;;;;;;7.90;71.41;98315.34;7380830;19;20091;-57
2023/11/09 09:24:23;;;;;;;0.10;0.10;;;;;;;7.89;71.37;98294.66;7380604;19;20532;-58
2023/11/09 09:26:48;;;;;;;0.00;0.00;;;;;;;8.00;71.97;98311.38;7379924;19;20470;-57
2023/11/09 09:29:13;;;;;;;0.00;0.00;;;;;;;8.04;70.92;98289.50;7376695;19;20007;-58
2023/11/09 09:31:39;;;;;;;0.00;0.00;;;;;;;8.04;71.05;98286.91;7371815;19;20534;-57
2023/11/09 09:34:07;;;;;;;0.00;0.00;;;;;;;8.18;71.38;98290.59;7369723;19;20031;-57
2023/11/09 09:36:37;;;;;;;0.10;0.10;;;;;;;8.22;71.49;98279.94;7362463;19;20482;-57
2023/11/09 09:39:03;;;;;;;0.05;0.05;;;;;;;8.29;71.23;98285.66;7359305;19;20002;-57
2023/11/09 09:41:33;;;;;;;0.10;0.10;;;;;;;8.39;71.05;98273.88;7359622;19;20007;-58
2023/11/09 09:44:03;;;;;;;0.10;0.10;;;;;;;8.45;71.03;98257.94;7352694;19;20398;-58
2023/11/09 09:46:33;;;;;;;0.08;0.08;;;;;;;8.50;70.76;98258.56;7352209;19;20728;-57
2023/11/09 09:48:58;;;;;;;0.10;0.10;;;;;;;8.57;70.04;98254.72;7353131;19;20010;-58
2023/11/09 09:51:24;;;;;;;0.00;0.00;;;;;;;8.61;69.79;98250.16;7359067;19;20581;-57
2023/11/09 09:53:51;;;;;;;0.10;0.10;;;;;;;8.65;70.02;98250.84;7364531;19;20006;-56
2023/11/09 09:56:19;;;;;;;0.00;0.00;;;;;;;8.70;69.97;98244.47;7360496;19;20503;-57
2023/11/09 09:58:44;;;;;;;0.00;0.00;;;;;;;8.61;69.90;98233.72;7361485;19;20006;-57
2023/11/09 10:01:12;;;;;;;0.00;0.00;;;;;;;8.78;69.70;98251.88;7359053;19;20038;-57
2023/11/09 10:03:37;;;;;;;0.00;0.00;;;;;;;8.82;69.82;98242.97;7365522;19;20014;-56
2023/11/09 10:06:06;;;;;;;0.10;0.10;;;;;;;8.88;70.02;98254.81;7359949;19;20699;-58
2023/11/09 10:08:32;;;;;;;0.10;0.10;;;;;;;8.92;69.97;98248.50;7369396;19;20616;-56
2023/11/09 10:10:58;;;;;;;0.00;0.00;;;;;;;8.82;70.00;98215.19;7360323;19;20003;-58
2023/11/09 10:13:27;;;;;;;0.05;0.05;;;;;;;9.07;70.74;98245.03;7364676;19;20023;-57
2023/11/09 10:15:59;;;;;;;0.10;0.10;;;;;;;9.17;70.71;98247.97;7355756;19;20009;-57
2023/11/09 10:18:33;;;;;;;0.05;0.05;;;;;;;9.27;70.28;98243.91;7364546;19;20010;-58
2023/11/09 10:21:01;;;;;;;0.00;0.00;;;;;;;9.33;69.54;98235.78;7361317;19;20011;-57
2023/11/09 10:23:27;;;;;;;0.10;0.10;;;;;;;9.41;70.22;98240.53;7360562;19;20010;-56
2023/11/09 10:25:56;;;;;;;0.10;0.10;;;;;;;9.46;69.25;98236.75;7363257;19;20713;-57
2023/11/09 10:28:22;;;;;;;0.00;0.00;;;;;;;9.57;70.30;98231.75;7363124;19;20495;-56
2023/11/09 10:30:48;;;;;;;0.00;0.00;;;;;;;9.70;69.66;98223.22;7359212;19;20006;-58
2023/11/09 10:33:17;;;;;;;0.10;0.10;;;;;;;9.88;70.20;98219.53;7359020;19;20002;-58
2023/11/09 10:35:44;;;;;;;0.10;0.10;;;;;;;9.97;70.94;98212.94;7357278;19;20032;-56
2023/11/09 10:38:13;;;;;;;0.07;0.00;;;;;;;10.26;69.65;98229.47;7359234;19;20082;-58
2023/11/09 10:40:42;;;;;;;0.10;0.10;;;;;;;10.40;68.57;98211.19;7359537;19;20481;-57
2023/11/09 10:43:10;;;;;;;0.10;0.10;;;;;;;10.51;67.88;98203.53;7363584;19;20517;-56
2023/11/09 10:45:39;;;;;;;0.05;0.05;;;;;;;10.63;68.42;98213.19;7359973;19;20014;-58
2023/11/09 10:48:07;;;;;;;0.00;0.00;;;;;;;10.64;68.18;98178.38;7360686;19;19994;-58
2023/11/09 10:50:34;;;;;;;0.03;0.03;;;;;;;10.82;67.75;98207.66;7365243;19;20014;-57
2023/11/09 10:53:04;;;;;;;0.10;0.10;;;;;;;10.87;67.82;98216.03;7359444;19;21030;-57
2023/11/09 10:55:30;;;;;;;0.00;0.00;;;;;;;10.88;66.96;98201.22;7358721;19;20014;-57
2023/11/09 10:58:05;;;;;;;0.10;0.10;;;;;;;10.92;67.40;98202.69;7361321;19;20091;-57
2023/11/09 11:00:34;;;;;;;0.05;0.05;;;;;;;10.90;67.12;98200.19;7361800;19;20014;-58
2023/11/09 11:03:11;;;;;;;0.10;0.10;;;;;;;10.95;67.35;98202.50;7360797;19;20074;-58
2023/11/09 11:05:44;;;;;;;0.10;0.10;;;;;;;10.95;66.18;98192.06;7365634;19;20017;-57
2023/11/09 11:08:13;;;;;;;0.10;0.10;;;;;;;10.95;66.07;98192.06;7363295;19;20786;-57
2023/11/09 11:10:46;;;;;;;0.10;0.10;;;;;;;10.95;66.33;98188.59;7361340;19;20033;-56
2023/11/09 11:13:16;;;;;;;0.10;0.10;;;;;;;10.90;65.61;98174.09;7359637;19;20104;-58
2023/11/09 11:16:07;;;;;;;0.10;0.10;;;;;;;10.95;67.28;98179.00;7357073;19;20011;-58
2023/11/09 11:18:51;;;;;;;0.10;0.10;;;;;;;10.98;67.01;98175.34;7360094;19;20078;-58
2023/11/09 11:21:36;;;;;;;0.00;0.00;;;;;;;11.02;65.96;98182.06;7366764;19;20052;-56
2023/11/09 11:24:04;;;;;;;0.10;0.10;;;;;;;11.09;67.05;98151.97;7360935;19;20010;-58
2023/11/09 11:26:43;;;;;;;0.00;0.00;;;;;;;11.18;66.44;98152.22;7359661;19;20017;-57
2023/11/09 11:29:10;;;;;;;0.10;0.10;;;;;;;11.29;66.16;98159.34;7360360;19;20693;-58
2023/11/09 11:31:40;;;;;;;0.10;0.10;;;;;;;11.43;65.46;98145.38;7364361;19;20019;-57
2023/11/09 11:34:07;;;;;;;0.03;0.03;;;;;;;11.59;65.35;98143.38;7364459;19;20014;-56
2023/11/09 11:36:33;;;;;;;0.10;0.10;;;;;;;11.73;65.87;98137.22;7366885;19;20011;-58
2023/11/09 11:39:12;;;;;;;0.00;0.00;;;;;;;11.74;65.85;98117.16;7358717;19;20025;-57
2023/11/09 11:41:38;;;;;;;0.10;0.10;;;;;;;11.84;64.40;98124.28;7359982;19;21176;-57
2023/11/09 11:44:05;;;;;;;0.10;0.10;;;;;;;11.75;64.65;98113.59;7358445;19;20094;-57
2023/11/09 11:46:34;;;;;;;;;;;;;;;11.89;65.99;98134.44;7364440;19;20089;-55
2023/11/09 11:49:00;;;;;;;0.10;0.10;;;;;;;11.81;64.07;98121.00;7359245;19;19919;-57
2023/11/09 11:51:27;;;;;;;0.10;0.10;;;;;;;11.80;64.31;98124.56;7361083;19;20025;-57